Low Land 10 — WDJ6806 — position and weather

sailwx.info

Track history (hours):
 
Tides and Currents Weather Stations Pressure Air Temp Water Temp Dewpoint Dewpoint Depression Visibility Wind Speed Wind Dir Waves Ship Positions

Low Land 10

Owner: LOW LAND CONSTRUCTION CO. INC., HOUMA, LA. More information available from US FCC via Universal Licensing System and Coast Guard Vessel Documentation Center.

Last reported at 2017-Nov-20 00:30 UTC. Time now 2017-Nov-21 11:58 UTC.
Position N 29°36' W 090°40'.

Type: Tug. MMSI: 368000390.

Date/timePositionNaut miles runAvg speedWind from/ knotsBaromVisibWave heightAir tempDewpointWater temp
2017-Nov-20 00:30N 29°36' W 090°40'0 0.0
2017-Nov-20 00:01N 29°36' W 090°40'0 0.0
2017-Nov-19 23:30N 29°36' W 090°40'0 0.0
2017-Nov-19 23:01N 29°36' W 090°40'0 0.0
2017-Nov-19 22:31N 29°36' W 090°40'0 0.0
2017-Nov-19 22:01N 29°36' W 090°40'0 0.0
2017-Nov-19 21:30N 29°36' W 090°40'0 0.0
2017-Nov-19 21:01N 29°36' W 090°40'0 0.0
2017-Nov-19 20:30N 29°36' W 090°40'0 0.0
2017-Nov-19 20:00N 29°36' W 090°40'0 0.0
2017-Nov-19 19:31N 29°36' W 090°40'0 0.0
2017-Nov-19 19:01N 29°36' W 090°40'0 0.0
2017-Nov-19 18:31N 29°36' W 090°40'0 0.0
2017-Nov-19 18:01N 29°36' W 090°40'0 0.0
2017-Nov-19 17:31N 29°36' W 090°40'0 0.0
2017-Nov-19 17:01N 29°36' W 090°40'0 0.0
2017-Nov-19 16:31N 29°36' W 090°40'0 0.0
2017-Nov-19 16:00N 29°36' W 090°40'0 0.0
2017-Nov-19 15:31N 29°36' W 090°40'0 0.0
2017-Nov-19 15:00N 29°36' W 090°40'0 0.0
2017-Nov-19 14:30N 29°36' W 090°40'0 0.0
2017-Nov-19 14:01N 29°36' W 090°40'0 0.0
2017-Nov-19 13:31N 29°36' W 090°40'0 0.0
2017-Nov-19 13:01N 29°36' W 090°40'0 0.0
2017-Nov-19 12:31N 29°36' W 090°40'0 0.0
2017-Nov-19 12:01N 29°36' W 090°40'0 0.0
2017-Nov-19 11:30N 29°36' W 090°40'0 0.0
2017-Nov-19 11:01N 29°36' W 090°40'0 0.0
2017-Nov-19 10:30N 29°36' W 090°40'0 0.0
2017-Nov-19 10:01N 29°36' W 090°40'0 0.0
2017-Nov-19 09:31N 29°36' W 090°40'0 0.0
2017-Nov-19 09:00N 29°36' W 090°40'0 0.0
2017-Nov-19 08:30N 29°36' W 090°40'0 0.0
2017-Nov-19 08:00N 29°36' W 090°40'0 0.0
2017-Nov-19 07:30N 29°36' W 090°40'0 0.0
2017-Nov-19 07:01N 29°36' W 090°40'0 0.0
2017-Nov-19 06:31N 29°36' W 090°40'0 0.0
2017-Nov-19 06:01N 29°36' W 090°40'0 0.0
2017-Nov-19 05:31N 29°36' W 090°40'0 0.0
2017-Nov-19 05:00N 29°36' W 090°40'0 0.0
2017-Nov-19 04:30N 29°36' W 090°40'0 0.0
2017-Nov-19 04:01N 29°36' W 090°40'0 0.0
2017-Nov-19 03:30N 29°36' W 090°40'0 0.0
2017-Nov-19 03:00N 29°36' W 090°40'0 0.0
2017-Nov-19 02:31N 29°36' W 090°40'0 0.0
2017-Nov-19 02:00N 29°36' W 090°40'0 0.0
2017-Nov-19 01:31N 29°36' W 090°40'0 0.0
2017-Nov-19 01:01N 29°36' W 090°40'0 0.2
2017-Nov-18 23:54N 29°36' W 090°40'2 3.9
2017-Nov-18 23:30N 29°35' W 090°38'2 4.6
2017-Nov-18 23:00N 29°35' W 090°36'2 4.8
2017-Nov-18 22:30N 29°34' W 090°33'2 4.8
2017-Nov-18 22:00N 29°34' W 090°30'5 0.3
2017-Nov-18 05:23N 29°33' W 090°24'4 4.3
2017-Nov-18 04:33N 29°34' W 090°28'0 5.5
2017-Nov-18 04:29N 29°34' W 090°29'3 5.4
2017-Nov-18 04:00N 29°34' W 090°32'3 5.2
2017-Nov-18 03:30N 29°34' W 090°35'3 5.0
2017-Nov-18 03:00N 29°35' W 090°37'2 4.6
2017-Nov-18 02:30N 29°36' W 090°40'0 0.0
2017-Nov-18 01:58N 29°36' W 090°40'0 0.0
2017-Nov-18 01:27N 29°36' W 090°40'2 3.8
2017-Nov-18 01:00N 29°35' W 090°38'2 4.9
2017-Nov-18 00:30N 29°35' W 090°35'2 5.0
2017-Nov-18 00:00N 29°34' W 090°33'3 5.2
2017-Nov-17 23:30N 29°34' W 090°30'4 0.1
2017-Nov-15 23:01N 29°33' W 090°25'0 0.9
2017-Nov-15 23:00N 29°33' W 090°25'4 4.0
2017-Nov-15 22:03N 29°34' W 090°29'1 5.3
2017-Nov-15 21:51N 29°34' W 090°30'2 5.2
2017-Nov-15 21:30N 29°34' W 090°32'3 5.0
2017-Nov-15 20:58N 29°35' W 090°35'2 5.0
2017-Nov-15 20:31N 29°35' W 090°38'2 4.0
2017-Nov-15 20:00N 29°36' W 090°40'0 0.0
2017-Nov-15 19:30N 29°36' W 090°40'0 0.0
2017-Nov-15 19:00N 29°36' W 090°40'0 0.0
2017-Nov-15 18:30N 29°36' W 090°40'0 0.0
2017-Nov-15 18:00N 29°36' W 090°40'0 0.0
2017-Nov-15 17:30N 29°36' W 090°40'0 0.0
2017-Nov-15 17:00N 29°36' W 090°40'0 0.0
2017-Nov-15 16:30N 29°36' W 090°40'0 0.1
2017-Nov-15 16:01N 29°36' W 090°40'0 0.0
2017-Nov-15 15:30N 29°36' W 090°40'0 0.0
2017-Nov-15 15:01N 29°36' W 090°40'0 0.5
2017-Nov-15 14:31N 29°36' W 090°40'0 0.2
2017-Nov-15 13:31N 29°36' W 090°40'0 0.0
2017-Nov-15 13:30N 29°36' W 090°40'0 0.0
2017-Nov-14 23:04N 29°36' W 090°40'0 0.0
2017-Nov-14 23:00N 29°36' W 090°40'0 0.0
2017-Nov-14 22:30N 29°36' W 090°40'0 0.0
2017-Nov-14 21:54N 29°36' W 090°40'0 0.0
2017-Nov-14 21:30N 29°36' W 090°40'0 0.0
2017-Nov-14 21:00N 29°36' W 090°40'0 0.0
2017-Nov-14 20:30N 29°36' W 090°40'0 0.0
2017-Nov-14 20:00N 29°36' W 090°40'0 0.0
2017-Nov-14 19:30N 29°36' W 090°40'0 0.0
2017-Nov-14 18:59N 29°36' W 090°40'0 0.0
2017-Nov-14 18:30N 29°36' W 090°40'0 0.0
2017-Nov-14 18:00N 29°36' W 090°40'0 0.0
2017-Nov-14 17:30N 29°36' W 090°40'0 0.0
2017-Nov-14 17:00N 29°36' W 090°40'0 0.0
2017-Nov-14 16:30N 29°36' W 090°40'0 0.2
2017-Nov-14 16:00N 29°36' W 090°40'0 0.2
2017-Nov-14 15:30N 29°36' W 090°40'0 0.3
2017-Nov-14 15:00N 29°36' W 090°40'0 0.5
2017-Nov-14 14:30N 29°36' W 090°40'0 0.4
2017-Nov-14 14:00N 29°36' W 090°39'0 0.8
2017-Nov-14 13:30N 29°36' W 090°40'0 0.0
2017-Nov-14 13:00N 29°36' W 090°40'0 0.0
2017-Nov-14 12:30N 29°36' W 090°40'0 0.0
2017-Nov-14 12:00N 29°36' W 090°40'0 0.0
2017-Nov-14 11:30N 29°36' W 090°40'0 0.0
2017-Nov-14 11:00N 29°36' W 090°40'0 0.0
2017-Nov-14 10:30N 29°36' W 090°40'0 0.0
2017-Nov-14 10:00N 29°36' W 090°40'0 0.0
2017-Nov-14 09:30N 29°36' W 090°40'0 0.0
2017-Nov-14 09:00N 29°36' W 090°40'0 0.0
2017-Nov-14 08:30N 29°36' W 090°40'0 0.0
2017-Nov-14 08:00N 29°36' W 090°40'0 0.0
2017-Nov-14 07:30N 29°36' W 090°40'0 0.0
2017-Nov-14 07:00N 29°36' W 090°40'0 0.0
2017-Nov-14 06:30N 29°36' W 090°40'0 0.0
2017-Nov-14 06:00N 29°36' W 090°40'0 0.0
2017-Nov-14 05:30N 29°36' W 090°40'0 0.0
2017-Nov-14 05:00N 29°36' W 090°40'0 0.0
2017-Nov-14 04:30N 29°36' W 090°40'0 0.0
2017-Nov-14 04:00N 29°36' W 090°40'0 0.0
2017-Nov-14 03:29N 29°36' W 090°40'0 0.0
2017-Nov-14 03:00N 29°36' W 090°40'0 0.0
2017-Nov-14 02:30N 29°36' W 090°40'0 0.0
2017-Nov-14 01:56N 29°36' W 090°40'0 0.0
2017-Nov-14 01:26N 29°36' W 090°40'0 0.0
2017-Nov-14 01:00N 29°36' W 090°40'0 0.0
2017-Nov-14 00:30N 29°36' W 090°40'0 0.0
2017-Nov-14 00:00N 29°36' W 090°40'0 0.0
2017-Nov-13 23:30N 29°36' W 090°40'0 0.0
2017-Nov-13 23:00N 29°36' W 090°40'0 0.0
2017-Nov-13 22:30N 29°36' W 090°40'0 0.0
2017-Nov-13 22:00N 29°36' W 090°40'0 0.0
2017-Nov-13 02:00N 29°36' W 090°40'0 0.0
2017-Nov-13 01:30N 29°36' W 090°40'0 0.0
2017-Nov-13 01:00N 29°36' W 090°40'0 0.0
2017-Nov-13 00:30N 29°36' W 090°40'0 0.0
2017-Nov-13 00:00N 29°36' W 090°40'0 0.0
2017-Nov-12 23:30N 29°36' W 090°40'0 0.0
2017-Nov-12 23:00N 29°36' W 090°40'0 0.0
2017-Nov-12 22:30N 29°36' W 090°40'0 0.0
2017-Nov-12 22:00N 29°36' W 090°40'0 0.0
2017-Nov-12 21:30N 29°36' W 090°40'0 0.0
2017-Nov-12 21:00N 29°36' W 090°40'0 0.0
2017-Nov-12 20:30N 29°36' W 090°40'0 0.0
2017-Nov-12 20:00N 29°36' W 090°40'0 0.0
2017-Nov-12 19:30N 29°36' W 090°40'0 0.0
2017-Nov-12 19:00N 29°36' W 090°40'0 0.0
2017-Nov-12 18:30N 29°36' W 090°40'0 0.0
2017-Nov-12 18:00N 29°36' W 090°40'0 0.0
2017-Nov-12 17:30N 29°36' W 090°40'0 0.0
2017-Nov-12 17:00N 29°36' W 090°40'0 0.0
2017-Nov-12 16:30N 29°36' W 090°40'0 0.0
2017-Nov-12 16:00N 29°36' W 090°40'0 0.0
2017-Nov-12 15:30N 29°36' W 090°40'0 0.0
2017-Nov-12 15:00N 29°36' W 090°40'0 0.0
2017-Nov-12 14:30N 29°36' W 090°40'0 0.0
2017-Nov-12 14:00N 29°36' W 090°40'0 0.0
2017-Nov-12 13:30N 29°36' W 090°40'0 0.0
2017-Nov-12 13:00N 29°36' W 090°40'0 0.0
2017-Nov-12 12:30N 29°36' W 090°40'0 0.0
2017-Nov-12 12:00N 29°36' W 090°40'0 0.0
2017-Nov-12 11:30N 29°36' W 090°40'0 0.0
2017-Nov-12 11:00N 29°36' W 090°40'0 0.0
2017-Nov-12 10:30N 29°36' W 090°40'0 0.0
2017-Nov-12 10:00N 29°36' W 090°40'0 0.0
2017-Nov-12 09:30N 29°36' W 090°40'0 0.0
2017-Nov-12 09:00N 29°36' W 090°40'0 0.0
2017-Nov-12 08:30N 29°36' W 090°40'0 0.0
2017-Nov-12 08:00N 29°36' W 090°40'0 0.0
2017-Nov-12 07:30N 29°36' W 090°40'0 0.0
2017-Nov-12 07:00N 29°36' W 090°40'0 0.0
2017-Nov-12 06:30N 29°36' W 090°40'0 0.0
2017-Nov-12 06:00N 29°36' W 090°40'0 0.0
2017-Nov-12 05:30N 29°36' W 090°40'0 0.0
2017-Nov-12 05:00N 29°36' W 090°40'0 0.0
2017-Nov-12 04:30N 29°36' W 090°40'0 0.0
2017-Nov-12 04:00N 29°36' W 090°40'0 0.0
2017-Nov-12 03:30N 29°36' W 090°40'0 0.0
2017-Nov-12 03:00N 29°36' W 090°40'0 0.0
2017-Nov-12 02:30N 29°36' W 090°40'0 0.0
2017-Nov-12 02:00N 29°36' W 090°40'0 0.0
2017-Nov-12 01:30N 29°36' W 090°40'0 0.0
2017-Nov-12 01:00N 29°36' W 090°40'0 0.0
2017-Nov-12 00:30N 29°36' W 090°40'0 0.0
2017-Nov-12 00:00N 29°36' W 090°40'0 0.0
2017-Nov-11 23:30N 29°36' W 090°40'0 0.0
2017-Nov-11 23:00N 29°36' W 090°40'0 0.0
2017-Nov-11 22:30N 29°36' W 090°40'0 0.0
2017-Nov-11 22:00N 29°36' W 090°40'0 0.0
2017-Nov-11 21:30N 29°36' W 090°40'0 0.0
2017-Nov-11 21:00N 29°36' W 090°40'0 0.0
2017-Nov-11 20:30N 29°36' W 090°40'0 0.0
2017-Nov-11 20:00N 29°36' W 090°40'0 0.0
2017-Nov-11 19:30N 29°36' W 090°40'0 0.0
2017-Nov-11 19:00N 29°36' W 090°40'0 0.0
2017-Nov-11 18:30N 29°36' W 090°40'0 0.0
2017-Nov-11 18:00N 29°36' W 090°40'0 0.0
2017-Nov-11 17:30N 29°36' W 090°40'0 0.0
2017-Nov-11 17:00N 29°36' W 090°40'0 0.0
2017-Nov-11 16:30N 29°36' W 090°40'0 0.0
2017-Nov-11 16:00N 29°36' W 090°40'0 0.0
2017-Nov-11 15:30N 29°36' W 090°40'0 0.0
2017-Nov-11 15:00N 29°36' W 090°40'0 0.0
2017-Nov-11 14:30N 29°36' W 090°40'0 0.0
2017-Nov-11 14:00N 29°36' W 090°40'0 0.0
2017-Nov-11 13:30N 29°36' W 090°40'0 0.0
2017-Nov-11 13:00N 29°36' W 090°40'0 0.0
2017-Nov-11 12:30N 29°36' W 090°40'0 0.0
2017-Nov-11 12:00N 29°36' W 090°40'0 0.0
2017-Nov-11 11:30N 29°36' W 090°40'0 0.0
2017-Nov-11 11:00N 29°36' W 090°40'0 0.0
2017-Nov-11 10:30N 29°36' W 090°40'0 0.0
2017-Nov-11 10:00N 29°36' W 090°40'0 0.0
2017-Nov-11 09:30N 29°36' W 090°40'0 0.0
2017-Nov-11 09:00N 29°36' W 090°40'0 0.0
2017-Nov-11 08:30N 29°36' W 090°40'0 0.0
2017-Nov-11 08:00N 29°36' W 090°40'0 0.0
2017-Nov-11 07:30N 29°36' W 090°40'0 0.0
2017-Nov-11 07:00N 29°36' W 090°40'0 0.0
2017-Nov-11 06:30N 29°36' W 090°40'0 0.0
2017-Nov-11 06:00N 29°36' W 090°40'0 0.0
2017-Nov-11 05:30N 29°36' W 090°40'0 0.0
2017-Nov-11 05:00N 29°36' W 090°40'0 0.0
2017-Nov-11 04:30N 29°36' W 090°40'0 0.0
2017-Nov-11 04:00N 29°36' W 090°40'0 0.0
2017-Nov-11 03:30N 29°36' W 090°40'0 0.0
2017-Nov-11 03:00N 29°36' W 090°40'0 0.0
2017-Nov-11 02:30N 29°36' W 090°40'0 0.0
2017-Nov-11 02:00N 29°36' W 090°40'0 0.0
2017-Nov-11 01:30N 29°36' W 090°40'0 0.0
2017-Nov-11 01:00N 29°36' W 090°40'0 0.0
2017-Nov-11 00:30N 29°36' W 090°40'0 0.0
2017-Nov-11 00:00N 29°36' W 090°40'0 0.0
2017-Nov-10 23:30N 29°36' W 090°40'0 0.0
2017-Nov-10 23:00N 29°36' W 090°40'0 0.0
2017-Nov-10 22:30N 29°36' W 090°40'0 0.0
2017-Nov-10 22:00N 29°36' W 090°40'0 0.0
2017-Nov-10 21:30N 29°36' W 090°40'0 0.0
2017-Nov-10 21:00N 29°36' W 090°40'0 0.0
2017-Nov-10 20:30N 29°36' W 090°40'0 0.0
2017-Nov-10 20:00N 29°36' W 090°40'0 0.0
2017-Nov-10 19:30N 29°36' W 090°40'0 0.0
2017-Nov-10 19:00N 29°36' W 090°40'0 0.0
2017-Nov-10 18:30N 29°36' W 090°40'0 0.0
2017-Nov-10 18:00N 29°36' W 090°40'0 0.0
2017-Nov-10 17:30N 29°36' W 090°40'0 0.0
2017-Nov-10 17:00N 29°36' W 090°40'0 0.0
2017-Nov-10 16:30N 29°36' W 090°40'0 0.0
2017-Nov-10 16:00N 29°36' W 090°40'0 0.0
2017-Nov-10 15:30N 29°36' W 090°40'0 0.0
2017-Nov-10 15:00N 29°36' W 090°40'0 0.0
2017-Nov-10 14:30N 29°36' W 090°40'0 0.0
2017-Nov-10 14:00N 29°36' W 090°40'0 0.0
2017-Nov-10 13:30N 29°36' W 090°40'0 0.0
2017-Nov-10 13:00N 29°36' W 090°40'0 0.0
2017-Nov-10 12:30N 29°36' W 090°40'0 0.0
2017-Nov-10 12:00N 29°36' W 090°40'0 0.0
2017-Nov-10 10:31N 29°36' W 090°40'0 0.7
2017-Nov-10 10:30N 29°36' W 090°40'0 0.0
2017-Nov-10 10:00N 29°36' W 090°40'0 0.0
2017-Nov-10 09:30N 29°36' W 090°40'0 0.0
2017-Nov-10 09:00N 29°36' W 090°40'0 0.0
2017-Nov-10 08:30N 29°36' W 090°40'0 0.0
2017-Nov-10 08:00N 29°36' W 090°40'0 0.0
2017-Nov-10 07:30N 29°36' W 090°40'0 0.0
2017-Nov-10 07:00N 29°36' W 090°40'0 0.0
2017-Nov-10 06:30N 29°36' W 090°40'0 0.0
2017-Nov-10 06:00N 29°36' W 090°40'0 0.0
2017-Nov-10 05:30N 29°36' W 090°40'0 0.0
2017-Nov-10 05:00N 29°36' W 090°40'0 0.0
2017-Nov-10 04:30N 29°36' W 090°40'0 0.0
2017-Nov-10 04:00N 29°36' W 090°40'0 0.0
2017-Nov-10 03:30N 29°36' W 090°40'0 0.0
2017-Nov-10 03:00N 29°36' W 090°40'0 0.0
2017-Nov-10 02:30N 29°36' W 090°40'0 0.0
2017-Nov-10 02:00N 29°36' W 090°40'0 0.0
2017-Nov-10 01:30N 29°36' W 090°40'0 0.0
2017-Nov-10 01:00N 29°36' W 090°40'0 0.0
2017-Nov-10 00:30N 29°36' W 090°40'  
Track history (hours):
 
Tides and Currents Weather Stations Pressure Air Temp Water Temp Dewpoint Dewpoint Depression Visibility Wind Speed Wind Dir Waves Ship Positions

Low Land 10

Owner: LOW LAND CONSTRUCTION CO. INC., HOUMA, LA. More information available from US FCC via Universal Licensing System and Coast Guard Vessel Documentation Center.

Last reported at 2017-Nov-20 00:30 UTC. Time now 2017-Nov-21 11:58 UTC.
Position N 29°36' W 090°40'.

Type: Tug. MMSI: 368000390.

Date/timePositionNaut miles runAvg speedWind from/ knotsBaromVisibWave heightAir tempDewpointWater temp
2017-Nov-20 00:30N 29°36' W 090°40'0 0.0
2017-Nov-20 00:01N 29°36' W 090°40'0 0.0
2017-Nov-19 23:30N 29°36' W 090°40'0 0.0
2017-Nov-19 23:01N 29°36' W 090°40'0 0.0
2017-Nov-19 22:31N 29°36' W 090°40'0 0.0
2017-Nov-19 22:01N 29°36' W 090°40'0 0.0
2017-Nov-19 21:30N 29°36' W 090°40'0 0.0
2017-Nov-19 21:01N 29°36' W 090°40'0 0.0
2017-Nov-19 20:30N 29°36' W 090°40'0 0.0
2017-Nov-19 20:00N 29°36' W 090°40'0 0.0
2017-Nov-19 19:31N 29°36' W 090°40'0 0.0
2017-Nov-19 19:01N 29°36' W 090°40'0 0.0
2017-Nov-19 18:31N 29°36' W 090°40'0 0.0
2017-Nov-19 18:01N 29°36' W 090°40'0 0.0
2017-Nov-19 17:31N 29°36' W 090°40'0 0.0
2017-Nov-19 17:01N 29°36' W 090°40'0 0.0
2017-Nov-19 16:31N 29°36' W 090°40'0 0.0
2017-Nov-19 16:00N 29°36' W 090°40'0 0.0
2017-Nov-19 15:31N 29°36' W 090°40'0 0.0
2017-Nov-19 15:00N 29°36' W 090°40'0 0.0
2017-Nov-19 14:30N 29°36' W 090°40'0 0.0
2017-Nov-19 14:01N 29°36' W 090°40'0 0.0
2017-Nov-19 13:31N 29°36' W 090°40'0 0.0
2017-Nov-19 13:01N 29°36' W 090°40'0 0.0
2017-Nov-19 12:31N 29°36' W 090°40'0 0.0
2017-Nov-19 12:01N 29°36' W 090°40'0 0.0
2017-Nov-19 11:30N 29°36' W 090°40'0 0.0
2017-Nov-19 11:01N 29°36' W 090°40'0 0.0
2017-Nov-19 10:30N 29°36' W 090°40'0 0.0
2017-Nov-19 10:01N 29°36' W 090°40'0 0.0
2017-Nov-19 09:31N 29°36' W 090°40'0 0.0
2017-Nov-19 09:00N 29°36' W 090°40'0 0.0
2017-Nov-19 08:30N 29°36' W 090°40'0 0.0
2017-Nov-19 08:00N 29°36' W 090°40'0 0.0
2017-Nov-19 07:30N 29°36' W 090°40'0 0.0
2017-Nov-19 07:01N 29°36' W 090°40'0 0.0
2017-Nov-19 06:31N 29°36' W 090°40'0 0.0
2017-Nov-19 06:01N 29°36' W 090°40'0 0.0
2017-Nov-19 05:31N 29°36' W 090°40'0 0.0
2017-Nov-19 05:00N 29°36' W 090°40'0 0.0
2017-Nov-19 04:30N 29°36' W 090°40'0 0.0
2017-Nov-19 04:01N 29°36' W 090°40'0 0.0
2017-Nov-19 03:30N 29°36' W 090°40'0 0.0
2017-Nov-19 03:00N 29°36' W 090°40'0 0.0
2017-Nov-19 02:31N 29°36' W 090°40'0 0.0
2017-Nov-19 02:00N 29°36' W 090°40'0 0.0
2017-Nov-19 01:31N 29°36' W 090°40'0 0.0
2017-Nov-19 01:01N 29°36' W 090°40'0 0.2
2017-Nov-18 23:54N 29°36' W 090°40'2 3.9
2017-Nov-18 23:30N 29°35' W 090°38'2 4.6
2017-Nov-18 23:00N 29°35' W 090°36'2 4.8
2017-Nov-18 22:30N 29°34' W 090°33'2 4.8
2017-Nov-18 22:00N 29°34' W 090°30'5 0.3
2017-Nov-18 05:23N 29°33' W 090°24'4 4.3
2017-Nov-18 04:33N 29°34' W 090°28'0 5.5
2017-Nov-18 04:29N 29°34' W 090°29'3 5.4
2017-Nov-18 04:00N 29°34' W 090°32'3 5.2
2017-Nov-18 03:30N 29°34' W 090°35'3 5.0
2017-Nov-18 03:00N 29°35' W 090°37'2 4.6
2017-Nov-18 02:30N 29°36' W 090°40'0 0.0
2017-Nov-18 01:58N 29°36' W 090°40'0 0.0
2017-Nov-18 01:27N 29°36' W 090°40'2 3.8
2017-Nov-18 01:00N 29°35' W 090°38'2 4.9
2017-Nov-18 00:30N 29°35' W 090°35'2 5.0
2017-Nov-18 00:00N 29°34' W 090°33'3 5.2
2017-Nov-17 23:30N 29°34' W 090°30'4 0.1
2017-Nov-15 23:01N 29°33' W 090°25'0 0.9
2017-Nov-15 23:00N 29°33' W 090°25'4 4.0
2017-Nov-15 22:03N 29°34' W 090°29'1 5.3
2017-Nov-15 21:51N 29°34' W 090°30'2 5.2
2017-Nov-15 21:30N 29°34' W 090°32'3 5.0
2017-Nov-15 20:58N 29°35' W 090°35'2 5.0
2017-Nov-15 20:31N 29°35' W 090°38'2 4.0
2017-Nov-15 20:00N 29°36' W 090°40'0 0.0
2017-Nov-15 19:30N 29°36' W 090°40'0 0.0
2017-Nov-15 19:00N 29°36' W 090°40'0 0.0
2017-Nov-15 18:30N 29°36' W 090°40'0 0.0
2017-Nov-15 18:00N 29°36' W 090°40'0 0.0
2017-Nov-15 17:30N 29°36' W 090°40'0 0.0
2017-Nov-15 17:00N 29°36' W 090°40'0 0.0
2017-Nov-15 16:30N 29°36' W 090°40'0 0.1
2017-Nov-15 16:01N 29°36' W 090°40'0 0.0
2017-Nov-15 15:30N 29°36' W 090°40'0 0.0
2017-Nov-15 15:01N 29°36' W 090°40'0 0.5
2017-Nov-15 14:31N 29°36' W 090°40'0 0.2
2017-Nov-15 13:31N 29°36' W 090°40'0 0.0
2017-Nov-15 13:30N 29°36' W 090°40'0 0.0
2017-Nov-14 23:04N 29°36' W 090°40'0 0.0
2017-Nov-14 23:00N 29°36' W 090°40'0 0.0
2017-Nov-14 22:30N 29°36' W 090°40'0 0.0
2017-Nov-14 21:54N 29°36' W 090°40'0 0.0
2017-Nov-14 21:30N 29°36' W 090°40'0 0.0
2017-Nov-14 21:00N 29°36' W 090°40'0 0.0
2017-Nov-14 20:30N 29°36' W 090°40'0 0.0
2017-Nov-14 20:00N 29°36' W 090°40'0 0.0
2017-Nov-14 19:30N 29°36' W 090°40'0 0.0
2017-Nov-14 18:59N 29°36' W 090°40'0 0.0
2017-Nov-14 18:30N 29°36' W 090°40'0 0.0
2017-Nov-14 18:00N 29°36' W 090°40'0 0.0
2017-Nov-14 17:30N 29°36' W 090°40'0 0.0
2017-Nov-14 17:00N 29°36' W 090°40'0 0.0
2017-Nov-14 16:30N 29°36' W 090°40'0 0.2
2017-Nov-14 16:00N 29°36' W 090°40'0 0.2
2017-Nov-14 15:30N 29°36' W 090°40'0 0.3
2017-Nov-14 15:00N 29°36' W 090°40'0 0.5
2017-Nov-14 14:30N 29°36' W 090°40'0 0.4
2017-Nov-14 14:00N 29°36' W 090°39'0 0.8
2017-Nov-14 13:30N 29°36' W 090°40'0 0.0
2017-Nov-14 13:00N 29°36' W 090°40'0 0.0
2017-Nov-14 12:30N 29°36' W 090°40'0 0.0
2017-Nov-14 12:00N 29°36' W 090°40'0 0.0
2017-Nov-14 11:30N 29°36' W 090°40'0 0.0
2017-Nov-14 11:00N 29°36' W 090°40'0 0.0
2017-Nov-14 10:30N 29°36' W 090°40'0 0.0
2017-Nov-14 10:00N 29°36' W 090°40'0 0.0
2017-Nov-14 09:30N 29°36' W 090°40'0 0.0
2017-Nov-14 09:00N 29°36' W 090°40'0 0.0
2017-Nov-14 08:30N 29°36' W 090°40'0 0.0
2017-Nov-14 08:00N 29°36' W 090°40'0 0.0
2017-Nov-14 07:30N 29°36' W 090°40'0 0.0
2017-Nov-14 07:00N 29°36' W 090°40'0 0.0
2017-Nov-14 06:30N 29°36' W 090°40'0 0.0
2017-Nov-14 06:00N 29°36' W 090°40'0 0.0
2017-Nov-14 05:30N 29°36' W 090°40'0 0.0
2017-Nov-14 05:00N 29°36' W 090°40'0 0.0
2017-Nov-14 04:30N 29°36' W 090°40'0 0.0
2017-Nov-14 04:00N 29°36' W 090°40'0 0.0
2017-Nov-14 03:29N 29°36' W 090°40'0 0.0
2017-Nov-14 03:00N 29°36' W 090°40'0 0.0
2017-Nov-14 02:30N 29°36' W 090°40'0 0.0
2017-Nov-14 01:56N 29°36' W 090°40'0 0.0
2017-Nov-14 01:26N 29°36' W 090°40'0 0.0
2017-Nov-14 01:00N 29°36' W 090°40'0 0.0
2017-Nov-14 00:30N 29°36' W 090°40'0 0.0
2017-Nov-14 00:00N 29°36' W 090°40'0 0.0
2017-Nov-13 23:30N 29°36' W 090°40'0 0.0
2017-Nov-13 23:00N 29°36' W 090°40'0 0.0
2017-Nov-13 22:30N 29°36' W 090°40'0 0.0
2017-Nov-13 22:00N 29°36' W 090°40'0 0.0
2017-Nov-13 02:00N 29°36' W 090°40'0 0.0
2017-Nov-13 01:30N 29°36' W 090°40'0 0.0
2017-Nov-13 01:00N 29°36' W 090°40'0 0.0
2017-Nov-13 00:30N 29°36' W 090°40'0 0.0
2017-Nov-13 00:00N 29°36' W 090°40'0 0.0
2017-Nov-12 23:30N 29°36' W 090°40'0 0.0
2017-Nov-12 23:00N 29°36' W 090°40'0 0.0
2017-Nov-12 22:30N 29°36' W 090°40'0 0.0
2017-Nov-12 22:00N 29°36' W 090°40'0 0.0
2017-Nov-12 21:30N 29°36' W 090°40'0 0.0
2017-Nov-12 21:00N 29°36' W 090°40'0 0.0
2017-Nov-12 20:30N 29°36' W 090°40'0 0.0
2017-Nov-12 20:00N 29°36' W 090°40'0 0.0
2017-Nov-12 19:30N 29°36' W 090°40'0 0.0
2017-Nov-12 19:00N 29°36' W 090°40'0 0.0
2017-Nov-12 18:30N 29°36' W 090°40'0 0.0
2017-Nov-12 18:00N 29°36' W 090°40'0 0.0
2017-Nov-12 17:30N 29°36' W 090°40'0 0.0
2017-Nov-12 17:00N 29°36' W 090°40'0 0.0
2017-Nov-12 16:30N 29°36' W 090°40'0 0.0
2017-Nov-12 16:00N 29°36' W 090°40'0 0.0
2017-Nov-12 15:30N 29°36' W 090°40'0 0.0
2017-Nov-12 15:00N 29°36' W 090°40'0 0.0
2017-Nov-12 14:30N 29°36' W 090°40'0 0.0
2017-Nov-12 14:00N 29°36' W 090°40'0 0.0
2017-Nov-12 13:30N 29°36' W 090°40'0 0.0
2017-Nov-12 13:00N 29°36' W 090°40'0 0.0
2017-Nov-12 12:30N 29°36' W 090°40'0 0.0
2017-Nov-12 12:00N 29°36' W 090°40'0 0.0
2017-Nov-12 11:30N 29°36' W 090°40'0 0.0
2017-Nov-12 11:00N 29°36' W 090°40'0 0.0
2017-Nov-12 10:30N 29°36' W 090°40'0 0.0
2017-Nov-12 10:00N 29°36' W 090°40'0 0.0
2017-Nov-12 09:30N 29°36' W 090°40'0 0.0
2017-Nov-12 09:00N 29°36' W 090°40'0 0.0
2017-Nov-12 08:30N 29°36' W 090°40'0 0.0
2017-Nov-12 08:00N 29°36' W 090°40'0 0.0
2017-Nov-12 07:30N 29°36' W 090°40'0 0.0
2017-Nov-12 07:00N 29°36' W 090°40'0 0.0
2017-Nov-12 06:30N 29°36' W 090°40'0 0.0
2017-Nov-12 06:00N 29°36' W 090°40'0 0.0
2017-Nov-12 05:30N 29°36' W 090°40'0 0.0
2017-Nov-12 05:00N 29°36' W 090°40'0 0.0
2017-Nov-12 04:30N 29°36' W 090°40'0 0.0
2017-Nov-12 04:00N 29°36' W 090°40'0 0.0
2017-Nov-12 03:30N 29°36' W 090°40'0 0.0
2017-Nov-12 03:00N 29°36' W 090°40'0 0.0
2017-Nov-12 02:30N 29°36' W 090°40'0 0.0
2017-Nov-12 02:00N 29°36' W 090°40'0 0.0
2017-Nov-12 01:30N 29°36' W 090°40'0 0.0
2017-Nov-12 01:00N 29°36' W 090°40'0 0.0
2017-Nov-12 00:30N 29°36' W 090°40'0 0.0
2017-Nov-12 00:00N 29°36' W 090°40'0 0.0
2017-Nov-11 23:30N 29°36' W 090°40'0 0.0
2017-Nov-11 23:00N 29°36' W 090°40'0 0.0
2017-Nov-11 22:30N 29°36' W 090°40'0 0.0
2017-Nov-11 22:00N 29°36' W 090°40'0 0.0
2017-Nov-11 21:30N 29°36' W 090°40'0 0.0
2017-Nov-11 21:00N 29°36' W 090°40'0 0.0
2017-Nov-11 20:30N 29°36' W 090°40'0 0.0
2017-Nov-11 20:00N 29°36' W 090°40'0 0.0
2017-Nov-11 19:30N 29°36' W 090°40'0 0.0
2017-Nov-11 19:00N 29°36' W 090°40'0 0.0
2017-Nov-11 18:30N 29°36' W 090°40'0 0.0
2017-Nov-11 18:00N 29°36' W 090°40'0 0.0
2017-Nov-11 17:30N 29°36' W 090°40'0 0.0
2017-Nov-11 17:00N 29°36' W 090°40'0 0.0
2017-Nov-11 16:30N 29°36' W 090°40'0 0.0
2017-Nov-11 16:00N 29°36' W 090°40'0 0.0
2017-Nov-11 15:30N 29°36' W 090°40'0 0.0
2017-Nov-11 15:00N 29°36' W 090°40'0 0.0
2017-Nov-11 14:30N 29°36' W 090°40'0 0.0
2017-Nov-11 14:00N 29°36' W 090°40'0 0.0
2017-Nov-11 13:30N 29°36' W 090°40'0 0.0
2017-Nov-11 13:00N 29°36' W 090°40'0 0.0
2017-Nov-11 12:30N 29°36' W 090°40'0 0.0
2017-Nov-11 12:00N 29°36' W 090°40'0 0.0
2017-Nov-11 11:30N 29°36' W 090°40'0 0.0
2017-Nov-11 11:00N 29°36' W 090°40'0 0.0
2017-Nov-11 10:30N 29°36' W 090°40'0 0.0
2017-Nov-11 10:00N 29°36' W 090°40'0 0.0
2017-Nov-11 09:30N 29°36' W 090°40'0 0.0
2017-Nov-11 09:00N 29°36' W 090°40'0 0.0
2017-Nov-11 08:30N 29°36' W 090°40'0 0.0
2017-Nov-11 08:00N 29°36' W 090°40'0 0.0
2017-Nov-11 07:30N 29°36' W 090°40'0 0.0
2017-Nov-11 07:00N 29°36' W 090°40'0 0.0
2017-Nov-11 06:30N 29°36' W 090°40'0 0.0
2017-Nov-11 06:00N 29°36' W 090°40'0 0.0
2017-Nov-11 05:30N 29°36' W 090°40'0 0.0
2017-Nov-11 05:00N 29°36' W 090°40'0 0.0
2017-Nov-11 04:30N 29°36' W 090°40'0 0.0
2017-Nov-11 04:00N 29°36' W 090°40'0 0.0
2017-Nov-11 03:30N 29°36' W 090°40'0 0.0
2017-Nov-11 03:00N 29°36' W 090°40'0 0.0
2017-Nov-11 02:30N 29°36' W 090°40'0 0.0
2017-Nov-11 02:00N 29°36' W 090°40'0 0.0
2017-Nov-11 01:30N 29°36' W 090°40'0 0.0
2017-Nov-11 01:00N 29°36' W 090°40'0 0.0
2017-Nov-11 00:30N 29°36' W 090°40'0 0.0
2017-Nov-11 00:00N 29°36' W 090°40'0 0.0
2017-Nov-10 23:30N 29°36' W 090°40'0 0.0
2017-Nov-10 23:00N 29°36' W 090°40'0 0.0
2017-Nov-10 22:30N 29°36' W 090°40'0 0.0
2017-Nov-10 22:00N 29°36' W 090°40'0 0.0
2017-Nov-10 21:30N 29°36' W 090°40'0 0.0
2017-Nov-10 21:00N 29°36' W 090°40'0 0.0
2017-Nov-10 20:30N 29°36' W 090°40'0 0.0
2017-Nov-10 20:00N 29°36' W 090°40'0 0.0
2017-Nov-10 19:30N 29°36' W 090°40'0 0.0
2017-Nov-10 19:00N 29°36' W 090°40'0 0.0
2017-Nov-10 18:30N 29°36' W 090°40'0 0.0
2017-Nov-10 18:00N 29°36' W 090°40'0 0.0
2017-Nov-10 17:30N 29°36' W 090°40'0 0.0
2017-Nov-10 17:00N 29°36' W 090°40'0 0.0
2017-Nov-10 16:30N 29°36' W 090°40'0 0.0
2017-Nov-10 16:00N 29°36' W 090°40'0 0.0
2017-Nov-10 15:30N 29°36' W 090°40'0 0.0
2017-Nov-10 15:00N 29°36' W 090°40'0 0.0
2017-Nov-10 14:30N 29°36' W 090°40'0 0.0
2017-Nov-10 14:00N 29°36' W 090°40'0 0.0
2017-Nov-10 13:30N 29°36' W 090°40'0 0.0
2017-Nov-10 13:00N 29°36' W 090°40'0 0.0
2017-Nov-10 12:30N 29°36' W 090°40'0 0.0
2017-Nov-10 12:00N 29°36' W 090°40'0 0.0
2017-Nov-10 10:31N 29°36' W 090°40'0 0.7
2017-Nov-10 10:30N 29°36' W 090°40'0 0.0
2017-Nov-10 10:00N 29°36' W 090°40'0 0.0
2017-Nov-10 09:30N 29°36' W 090°40'0 0.0
2017-Nov-10 09:00N 29°36' W 090°40'0 0.0
2017-Nov-10 08:30N 29°36' W 090°40'0 0.0
2017-Nov-10 08:00N 29°36' W 090°40'0 0.0
2017-Nov-10 07:30N 29°36' W 090°40'0 0.0
2017-Nov-10 07:00N 29°36' W 090°40'0 0.0
2017-Nov-10 06:30N 29°36' W 090°40'0 0.0
2017-Nov-10 06:00N 29°36' W 090°40'0 0.0
2017-Nov-10 05:30N 29°36' W 090°40'0 0.0
2017-Nov-10 05:00N 29°36' W 090°40'0 0.0
2017-Nov-10 04:30N 29°36' W 090°40'0 0.0
2017-Nov-10 04:00N 29°36' W 090°40'0 0.0
2017-Nov-10 03:30N 29°36' W 090°40'0 0.0
2017-Nov-10 03:00N 29°36' W 090°40'0 0.0
2017-Nov-10 02:30N 29°36' W 090°40'0 0.0
2017-Nov-10 02:00N 29°36' W 090°40'0 0.0
2017-Nov-10 01:30N 29°36' W 090°40'0 0.0
2017-Nov-10 01:00N 29°36' W 090°40'0 0.0
2017-Nov-10 00:30N 29°36' W 090°40'  

Dump ship's entire track history